Terminal Aerodrome Forecast
Issued by NWS Cleveland, OH

Home | Current Version | Previous Version | Graphics & Text | Print | Product List | Glossary On
Versions: 1 2 3 4 5 6 7 8 9 10 11 12 13 14 15 16 17
884
FTUS41 KCLE 241935 AAA
TAFYNG
TAF AMD
KYNG 241935Z 2420/2518 22008KT P6SM BKN035
      TEMPO 2420/2424 5SM -SHRA BKN025
     FM250100 23005KT P6SM SCT035 BKN100=

USA.gov is the U.S. government's official web portal to all federal, state and local government web resources and services.